Neusiedl am See, Austria
Current Conditions -  °F | °C
As of 7:20 PM on Thursday 27 Nov 2014 (Local Time) from LOWW Reporting Station
Broken Clouds Broken Clouds  
Wind Chill: 25°   Ceiling: 2700
Heat Index: 36°   Visibility: 6mi
Dew Point: 30°   Wind: 17mph
Humidity: 81%   Direction: 130°SE
Pressure: 30"   Gusts: NA
Location:  47.95°N, 16.84°E
Report Text: LOWW 271720Z 13015KT 9999 FEW020 BKN027 02/M01 Q1016 NOSIG
Loading
Personal Weather Stations






























Interactive Weather Map New forecast layout! Learn more

10-Day Weather Forecast

Advertisements
Track Severe Weather on mobile